sensor_id;sensor_type;location;lat;lon;timestamp;temperature;humidity
2749;DHT22;1382;52.142;11.618;2022-09-09T00:02:15;19.90;51.60
2749;DHT22;1382;52.142;11.618;2022-09-09T00:04:48;19.90;51.50
2749;DHT22;1382;52.142;11.618;2022-09-09T00:07:19;19.80;51.60
2749;DHT22;1382;52.142;11.618;2022-09-09T00:09:54;19.80;51.30
2749;DHT22;1382;52.142;11.618;2022-09-09T00:12:33;19.80;51.00
2749;DHT22;1382;52.142;11.618;2022-09-09T00:15:05;19.80;51.10
2749;DHT22;1382;52.142;11.618;2022-09-09T00:17:38;19.80;51.40
2749;DHT22;1382;52.142;11.618;2022-09-09T00:20:12;19.80;52.50
2749;DHT22;1382;52.142;11.618;2022-09-09T00:22:43;19.80;52.50
2749;DHT22;1382;52.142;11.618;2022-09-09T00:25:17;19.70;52.10
2749;DHT22;1382;52.142;11.618;2022-09-09T00:27:47;19.70;52.00
2749;DHT22;1382;52.142;11.618;2022-09-09T00:30:16;19.70;52.20
2749;DHT22;1382;52.142;11.618;2022-09-09T00:32:44;19.70;52.40
2749;DHT22;1382;52.142;11.618;2022-09-09T00:35:16;19.70;52.50
2749;DHT22;1382;52.142;11.618;2022-09-09T00:37:44;19.70;52.60
2749;DHT22;1382;52.142;11.618;2022-09-09T00:40:23;19.70;52.40
2749;DHT22;1382;52.142;11.618;2022-09-09T00:42:59;19.70;52.50
2749;DHT22;1382;52.142;11.618;2022-09-09T00:45:51;19.60;52.40
2749;DHT22;1382;52.142;11.618;2022-09-09T00:48:26;19.60;52.00
2749;DHT22;1382;52.142;11.618;2022-09-09T00:51:01;19.60;52.30
2749;DHT22;1382;52.142;11.618;2022-09-09T00:53:35;19.60;52.20
2749;DHT22;1382;52.142;11.618;2022-09-09T00:56:12;19.60;52.00
2749;DHT22;1382;52.142;11.618;2022-09-09T00:58:42;19.60;52.10
2749;DHT22;1382;52.142;11.618;2022-09-09T01:01:11;19.50;52.00
2749;DHT22;1382;52.142;11.618;2022-09-09T01:03:42;19.50;51.90
2749;DHT22;1382;52.142;11.618;2022-09-09T01:06:21;19.50;51.60
2749;DHT22;1382;52.142;11.618;2022-09-09T01:09:09;19.50;52.10
2749;DHT22;1382;52.142;11.618;2022-09-09T01:11:47;19.50;51.90
2749;DHT22;1382;52.142;11.618;2022-09-09T01:14:24;19.50;52.40
2749;DHT22;1382;52.142;11.618;2022-09-09T01:16:58;19.50;52.00
2749;DHT22;1382;52.142;11.618;2022-09-09T01:19:37;19.40;51.40
2749;DHT22;1382;52.142;11.618;2022-09-09T01:22:10;19.50;51.80
2749;DHT22;1382;52.142;11.618;2022-09-09T01:24:42;19.40;51.40
2749;DHT22;1382;52.142;11.618;2022-09-09T01:27:15;19.40;51.10
2749;DHT22;1382;52.142;11.618;2022-09-09T01:29:43;19.40;51.30
2749;DHT22;1382;52.142;11.618;2022-09-09T01:32:38;19.40;51.00
2749;DHT22;1382;52.142;11.618;2022-09-09T01:35:08;19.40;51.50
2749;DHT22;1382;52.142;11.618;2022-09-09T01:37:36;19.30;51.40
2749;DHT22;1382;52.142;11.618;2022-09-09T01:40:03;19.30;51.60
2749;DHT22;1382;52.142;11.618;2022-09-09T01:42:32;19.30;51.90
2749;DHT22;1382;52.142;11.618;2022-09-09T01:44:59;19.30;52.00
2749;DHT22;1382;52.142;11.618;2022-09-09T01:47:26;19.30;52.10
2749;DHT22;1382;52.142;11.618;2022-09-09T01:49:53;19.30;53.00
2749;DHT22;1382;52.142;11.618;2022-09-09T01:52:19;19.30;51.80
2749;DHT22;1382;52.142;11.618;2022-09-09T01:54:46;19.30;52.50
2749;DHT22;1382;52.142;11.618;2022-09-09T01:57:18;19.30;52.10
2749;DHT22;1382;52.142;11.618;2022-09-09T02:00:01;19.30;52.40
2749;DHT22;1382;52.142;11.618;2022-09-09T02:02:32;19.30;51.70
2749;DHT22;1382;52.142;11.618;2022-09-09T02:05:06;19.30;52.10
2749;DHT22;1382;52.142;11.618;2022-09-09T02:07:39;19.30;52.20
2749;DHT22;1382;52.142;11.618;2022-09-09T02:10:11;19.30;51.80
2749;DHT22;1382;52.142;11.618;2022-09-09T02:12:41;19.30;51.70
2749;DHT22;1382;52.142;11.618;2022-09-09T02:15:17;19.30;52.30
2749;DHT22;1382;52.142;11.618;2022-09-09T02:17:49;19.30;52.60
2749;DHT22;1382;52.142;11.618;2022-09-09T02:20:19;19.30;52.50
2749;DHT22;1382;52.142;11.618;2022-09-09T02:22:49;19.30;52.00
2749;DHT22;1382;52.142;11.618;2022-09-09T02:25:19;19.30;51.80
2749;DHT22;1382;52.142;11.618;2022-09-09T02:27:49;19.30;51.80
2749;DHT22;1382;52.142;11.618;2022-09-09T02:30:18;19.30;51.40
2749;DHT22;1382;52.142;11.618;2022-09-09T02:32:47;19.20;51.70
2749;DHT22;1382;52.142;11.618;2022-09-09T02:35:18;19.30;51.30
2749;DHT22;1382;52.142;11.618;2022-09-09T02:37:46;19.30;51.70
2749;DHT22;1382;52.142;11.618;2022-09-09T02:40:14;19.20;51.40
2749;DHT22;1382;52.142;11.618;2022-09-09T02:42:42;19.20;51.30
2749;DHT22;1382;52.142;11.618;2022-09-09T02:45:11;19.20;51.30
2749;DHT22;1382;52.142;11.618;2022-09-09T02:47:44;19.20;51.50
2749;DHT22;1382;52.142;11.618;2022-09-09T02:50:14;19.20;51.60
2749;DHT22;1382;52.142;11.618;2022-09-09T02:52:54;19.20;51.50
2749;DHT22;1382;52.142;11.618;2022-09-09T02:55:33;19.20;51.70
2749;DHT22;1382;52.142;11.618;2022-09-09T02:58:03;19.20;51.50
2749;DHT22;1382;52.142;11.618;2022-09-09T03:00:31;19.10;50.60
2749;DHT22;1382;52.142;11.618;2022-09-09T03:02:59;19.10;50.30
2749;DHT22;1382;52.142;11.618;2022-09-09T03:05:26;19.10;50.30
2749;DHT22;1382;52.142;11.618;2022-09-09T03:07:53;19.10;50.20
2749;DHT22;1382;52.142;11.618;2022-09-09T03:10:19;19.10;50.50
2749;DHT22;1382;52.142;11.618;2022-09-09T03:12:46;19.10;50.60
2749;DHT22;1382;52.142;11.618;2022-09-09T03:15:13;19.10;50.60
2749;DHT22;1382;52.142;11.618;2022-09-09T03:17:40;19.00;50.30
2749;DHT22;1382;52.142;11.618;2022-09-09T03:20:09;19.00;51.10
2749;DHT22;1382;52.142;11.618;2022-09-09T03:22:36;19.00;51.20
2749;DHT22;1382;52.142;11.618;2022-09-09T03:25:03;19.00;51.20
2749;DHT22;1382;52.142;11.618;2022-09-09T03:27:30;19.00;51.20
2749;DHT22;1382;52.142;11.618;2022-09-09T03:29:57;19.00;51.00
2749;DHT22;1382;52.142;11.618;2022-09-09T03:32:24;19.00;50.80
2749;DHT22;1382;52.142;11.618;2022-09-09T03:34:52;19.00;51.30
2749;DHT22;1382;52.142;11.618;2022-09-09T03:37:20;18.90;51.40
2749;DHT22;1382;52.142;11.618;2022-09-09T03:39:47;19.00;51.90
2749;DHT22;1382;52.142;11.618;2022-09-09T03:42:14;18.90;51.50
2749;DHT22;1382;52.142;11.618;2022-09-09T03:44:41;18.90;51.90
2749;DHT22;1382;52.142;11.618;2022-09-09T03:47:08;18.90;52.00
2749;DHT22;1382;52.142;11.618;2022-09-09T03:49:35;18.80;51.90
2749;DHT22;1382;52.142;11.618;2022-09-09T03:52:02;18.80;51.70
2749;DHT22;1382;52.142;11.618;2022-09-09T03:54:30;18.80;51.60
2749;DHT22;1382;52.142;11.618;2022-09-09T03:56:57;18.80;51.70
2749;DHT22;1382;52.142;11.618;2022-09-09T03:59:23;18.80;52.00
2749;DHT22;1382;52.142;11.618;2022-09-09T04:01:50;18.90;52.30
2749;DHT22;1382;52.142;11.618;2022-09-09T04:04:17;18.80;51.70
2749;DHT22;1382;52.142;11.618;2022-09-09T04:06:43;18.80;51.60
2749;DHT22;1382;52.142;11.618;2022-09-09T04:09:10;18.80;52.00
2749;DHT22;1382;52.142;11.618;2022-09-09T04:11:38;18.80;51.90
2749;DHT22;1382;52.142;11.618;2022-09-09T04:14:05;18.80;52.30
2749;DHT22;1382;52.142;11.618;2022-09-09T04:16:32;18.80;51.80
2749;DHT22;1382;52.142;11.618;2022-09-09T04:18:59;18.80;51.40
2749;DHT22;1382;52.142;11.618;2022-09-09T04:21:26;18.80;51.70
2749;DHT22;1382;52.142;11.618;2022-09-09T04:23:52;18.80;51.50
2749;DHT22;1382;52.142;11.618;2022-09-09T04:26:19;18.80;51.40
2749;DHT22;1382;52.142;11.618;2022-09-09T04:28:47;18.90;51.50
2749;DHT22;1382;52.142;11.618;2022-09-09T04:31:16;18.90;51.50
2749;DHT22;1382;52.142;11.618;2022-09-09T04:33:44;18.80;50.90
2749;DHT22;1382;52.142;11.618;2022-09-09T04:36:10;18.80;50.90
2749;DHT22;1382;52.142;11.618;2022-09-09T04:38:37;18.80;50.70
2749;DHT22;1382;52.142;11.618;2022-09-09T04:41:05;18.90;50.00
2749;DHT22;1382;52.142;11.618;2022-09-09T04:43:32;18.80;50.20
2749;DHT22;1382;52.142;11.618;2022-09-09T04:46:00;18.80;50.40
2749;DHT22;1382;52.142;11.618;2022-09-09T04:48:27;18.80;50.50
2749;DHT22;1382;52.142;11.618;2022-09-09T04:50:55;18.70;50.60
2749;DHT22;1382;52.142;11.618;2022-09-09T04:53:22;18.70;50.90
2749;DHT22;1382;52.142;11.618;2022-09-09T04:55:48;18.70;50.40
2749;DHT22;1382;52.142;11.618;2022-09-09T04:58:15;18.70;50.80
2749;DHT22;1382;52.142;11.618;2022-09-09T05:00:42;18.70;51.10
2749;DHT22;1382;52.142;11.618;2022-09-09T05:03:10;18.70;50.60
2749;DHT22;1382;52.142;11.618;2022-09-09T05:05:37;18.80;50.60
2749;DHT22;1382;52.142;11.618;2022-09-09T05:08:06;18.70;50.60
2749;DHT22;1382;52.142;11.618;2022-09-09T05:10:33;18.70;50.90
2749;DHT22;1382;52.142;11.618;2022-09-09T05:13:00;18.70;50.80
2749;DHT22;1382;52.142;11.618;2022-09-09T05:15:27;18.70;50.90
2749;DHT22;1382;52.142;11.618;2022-09-09T05:17:56;18.70;50.50
2749;DHT22;1382;52.142;11.618;2022-09-09T05:20:24;18.70;50.60
2749;DHT22;1382;52.142;11.618;2022-09-09T05:22:52;18.70;50.50
2749;DHT22;1382;52.142;11.618;2022-09-09T05:25:19;18.70;50.90
2749;DHT22;1382;52.142;11.618;2022-09-09T05:27:46;18.70;51.50
2749;DHT22;1382;52.142;11.618;2022-09-09T05:30:13;18.70;51.40
2749;DHT22;1382;52.142;11.618;2022-09-09T05:32:39;18.70;51.60
2749;DHT22;1382;52.142;11.618;2022-09-09T05:35:07;18.70;51.30
2749;DHT22;1382;52.142;11.618;2022-09-09T05:37:35;18.80;51.50
2749;DHT22;1382;52.142;11.618;2022-09-09T05:40:02;18.90;51.90
2749;DHT22;1382;52.142;11.618;2022-09-09T05:42:30;18.80;51.80
2749;DHT22;1382;52.142;11.618;2022-09-09T05:44:57;18.80;51.60
2749;DHT22;1382;52.142;11.618;2022-09-09T05:47:23;18.80;51.10
2749;DHT22;1382;52.142;11.618;2022-09-09T05:49:50;18.90;50.90
2749;DHT22;1382;52.142;11.618;2022-09-09T05:52:17;18.90;50.90
2749;DHT22;1382;52.142;11.618;2022-09-09T05:54:45;19.00;51.30
2749;DHT22;1382;52.142;11.618;2022-09-09T05:57:11;19.00;51.90
2749;DHT22;1382;52.142;11.618;2022-09-09T05:59:38;19.10;51.40
2749;DHT22;1382;52.142;11.618;2022-09-09T06:02:05;19.10;51.20
2749;DHT22;1382;52.142;11.618;2022-09-09T06:04:32;19.20;51.60
2749;DHT22;1382;52.142;11.618;2022-09-09T06:06:58;19.20;52.10
2749;DHT22;1382;52.142;11.618;2022-09-09T06:09:25;19.30;52.20
2749;DHT22;1382;52.142;11.618;2022-09-09T06:11:53;19.30;51.80
2749;DHT22;1382;52.142;11.618;2022-09-09T06:14:20;19.40;51.80
2749;DHT22;1382;52.142;11.618;2022-09-09T06:16:47;19.50;51.90
2749;DHT22;1382;52.142;11.618;2022-09-09T06:19:13;19.50;51.90
2749;DHT22;1382;52.142;11.618;2022-09-09T06:21:40;19.50;51.80
2749;DHT22;1382;52.142;11.618;2022-09-09T06:24:07;19.70;52.20
2749;DHT22;1382;52.142;11.618;2022-09-09T06:26:36;19.60;51.30
2749;DHT22;1382;52.142;11.618;2022-09-09T06:29:04;19.60;52.10
2749;DHT22;1382;52.142;11.618;2022-09-09T06:31:33;19.70;52.30
2749;DHT22;1382;52.142;11.618;2022-09-09T06:34:00;19.70;52.30
2749;DHT22;1382;52.142;11.618;2022-09-09T06:36:28;19.80;52.30
2749;DHT22;1382;52.142;11.618;2022-09-09T06:38:56;19.90;52.40
2749;DHT22;1382;52.142;11.618;2022-09-09T06:41:24;19.90;52.30
2749;DHT22;1382;52.142;11.618;2022-09-09T06:43:51;19.90;51.50
2749;DHT22;1382;52.142;11.618;2022-09-09T06:46:21;19.90;51.90
2749;DHT22;1382;52.142;11.618;2022-09-09T06:48:48;19.90;52.80
2749;DHT22;1382;52.142;11.618;2022-09-09T06:51:17;19.90;52.30
2749;DHT22;1382;52.142;11.618;2022-09-09T06:53:45;20.00;53.00
2749;DHT22;1382;52.142;11.618;2022-09-09T06:56:21;20.00;53.40
2749;DHT22;1382;52.142;11.618;2022-09-09T06:58:49;20.10;53.50
2749;DHT22;1382;52.142;11.618;2022-09-09T07:01:19;20.10;53.70
2749;DHT22;1382;52.142;11.618;2022-09-09T07:03:48;20.10;53.40
2749;DHT22;1382;52.142;11.618;2022-09-09T07:06:17;20.20;53.30
2749;DHT22;1382;52.142;11.618;2022-09-09T07:08:48;20.30;53.10
2749;DHT22;1382;52.142;11.618;2022-09-09T07:11:24;20.30;52.70
2749;DHT22;1382;52.142;11.618;2022-09-09T07:13:51;20.30;52.20
2749;DHT22;1382;52.142;11.618;2022-09-09T07:16:20;20.40;52.80
2749;DHT22;1382;52.142;11.618;2022-09-09T07:18:47;20.40;52.90
2749;DHT22;1382;52.142;11.618;2022-09-09T07:21:14;20.50;52.00
2749;DHT22;1382;52.142;11.618;2022-09-09T07:23:41;20.50;52.50
2749;DHT22;1382;52.142;11.618;2022-09-09T07:26:09;20.60;52.60
2749;DHT22;1382;52.142;11.618;2022-09-09T07:28:36;20.60;52.70
2749;DHT22;1382;52.142;11.618;2022-09-09T07:31:04;20.70;53.40
2749;DHT22;1382;52.142;11.618;2022-09-09T07:33:34;20.80;52.50
2749;DHT22;1382;52.142;11.618;2022-09-09T07:36:04;20.80;52.80
2749;DHT22;1382;52.142;11.618;2022-09-09T07:38:31;20.90;53.20
2749;DHT22;1382;52.142;11.618;2022-09-09T07:41:03;21.10;53.30
2749;DHT22;1382;52.142;11.618;2022-09-09T07:43:30;21.00;53.50
2749;DHT22;1382;52.142;11.618;2022-09-09T07:45:57;21.10;53.20
2749;DHT22;1382;52.142;11.618;2022-09-09T07:48:24;21.10;52.10
2749;DHT22;1382;52.142;11.618;2022-09-09T07:50:52;21.20;52.20
2749;DHT22;1382;52.142;11.618;2022-09-09T07:53:19;21.40;52.60
2749;DHT22;1382;52.142;11.618;2022-09-09T07:55:46;21.40;52.70
2749;DHT22;1382;52.142;11.618;2022-09-09T07:58:13;21.50;53.00
2749;DHT22;1382;52.142;11.618;2022-09-09T08:00:39;21.50;52.10
2749;DHT22;1382;52.142;11.618;2022-09-09T08:03:06;21.60;52.20
2749;DHT22;1382;52.142;11.618;2022-09-09T08:05:34;21.70;51.50
2749;DHT22;1382;52.142;11.618;2022-09-09T08:08:02;21.80;52.00
2749;DHT22;1382;52.142;11.618;2022-09-09T08:10:29;21.90;52.00
2749;DHT22;1382;52.142;11.618;2022-09-09T08:12:55;21.90;52.50
2749;DHT22;1382;52.142;11.618;2022-09-09T08:15:42;22.00;51.70
2749;DHT22;1382;52.142;11.618;2022-09-09T08:18:09;22.10;51.60
2749;DHT22;1382;52.142;11.618;2022-09-09T08:20:36;22.10;52.20
2749;DHT22;1382;52.142;11.618;2022-09-09T08:23:04;22.20;52.20
2749;DHT22;1382;52.142;11.618;2022-09-09T08:25:31;22.20;51.60
2749;DHT22;1382;52.142;11.618;2022-09-09T08:27:58;22.30;52.20
2749;DHT22;1382;52.142;11.618;2022-09-09T08:30:24;22.50;52.00
2749;DHT22;1382;52.142;11.618;2022-09-09T08:32:51;22.60;52.80
2749;DHT22;1382;52.142;11.618;2022-09-09T08:35:19;22.70;52.50
2749;DHT22;1382;52.142;11.618;2022-09-09T08:37:46;22.70;52.70
2749;DHT22;1382;52.142;11.618;2022-09-09T08:40:25;22.90;52.80
2749;DHT22;1382;52.142;11.618;2022-09-09T08:42:55;23.00;52.40
2749;DHT22;1382;52.142;11.618;2022-09-09T08:45:28;23.20;52.70
2749;DHT22;1382;52.142;11.618;2022-09-09T08:48:20;23.30;52.50
2749;DHT22;1382;52.142;11.618;2022-09-09T08:50:53;23.40;52.20
2749;DHT22;1382;52.142;11.618;2022-09-09T08:53:21;23.50;52.80
2749;DHT22;1382;52.142;11.618;2022-09-09T08:55:51;23.70;52.60
2749;DHT22;1382;52.142;11.618;2022-09-09T08:58:20;23.90;51.90
2749;DHT22;1382;52.142;11.618;2022-09-09T09:01:13;24.00;52.00
2749;DHT22;1382;52.142;11.618;2022-09-09T09:03:50;24.10;51.60
2749;DHT22;1382;52.142;11.618;2022-09-09T09:06:30;24.40;51.50
2749;DHT22;1382;52.142;11.618;2022-09-09T09:09:02;24.30;51.00
2749;DHT22;1382;52.142;11.618;2022-09-09T09:11:38;24.60;50.80
2749;DHT22;1382;52.142;11.618;2022-09-09T09:14:10;24.90;50.70
2749;DHT22;1382;52.142;11.618;2022-09-09T09:16:42;24.90;50.40
2749;DHT22;1382;52.142;11.618;2022-09-09T09:19:13;25.00;50.10
2749;DHT22;1382;52.142;11.618;2022-09-09T09:21:43;25.20;50.00
2749;DHT22;1382;52.142;11.618;2022-09-09T09:24:16;25.30;49.80
2749;DHT22;1382;52.142;11.618;2022-09-09T09:26:49;25.50;49.60
2749;DHT22;1382;52.142;11.618;2022-09-09T09:29:18;25.50;49.20
2749;DHT22;1382;52.142;11.618;2022-09-09T09:31:48;25.50;49.10
2749;DHT22;1382;52.142;11.618;2022-09-09T09:34:19;25.70;49.10
2749;DHT22;1382;52.142;11.618;2022-09-09T09:36:52;25.70;48.90
2749;DHT22;1382;52.142;11.618;2022-09-09T09:39:24;25.80;49.10
2749;DHT22;1382;52.142;11.618;2022-09-09T09:42:14;26.00;48.70
2749;DHT22;1382;52.142;11.618;2022-09-09T09:44:47;26.00;48.90
2749;DHT22;1382;52.142;11.618;2022-09-09T09:47:15;26.10;48.80
2749;DHT22;1382;52.142;11.618;2022-09-09T09:49:51;26.20;48.90
2749;DHT22;1382;52.142;11.618;2022-09-09T09:52:22;26.40;48.60
2749;DHT22;1382;52.142;11.618;2022-09-09T09:54:50;26.50;48.20
2749;DHT22;1382;52.142;11.618;2022-09-09T09:57:21;26.60;48.20
2749;DHT22;1382;52.142;11.618;2022-09-09T10:00:01;26.70;48.00
2749;DHT22;1382;52.142;11.618;2022-09-09T10:02:36;26.70;48.00
2749;DHT22;1382;52.142;11.618;2022-09-09T10:05:05;26.80;48.10
2749;DHT22;1382;52.142;11.618;2022-09-09T10:07:32;26.90;47.80
2749;DHT22;1382;52.142;11.618;2022-09-09T10:10:00;27.00;47.70
2749;DHT22;1382;52.142;11.618;2022-09-09T10:12:37;27.10;47.50
2749;DHT22;1382;52.142;11.618;2022-09-09T10:15:21;27.20;46.60
2749;DHT22;1382;52.142;11.618;2022-09-09T10:17:56;27.30;46.40
2749;DHT22;1382;52.142;11.618;2022-09-09T10:20:33;27.30;46.30
2749;DHT22;1382;52.142;11.618;2022-09-09T10:23:12;27.40;47.20
2749;DHT22;1382;52.142;11.618;2022-09-09T10:25:55;27.50;46.40
2749;DHT22;1382;52.142;11.618;2022-09-09T10:28:51;27.50;45.90
2749;DHT22;1382;52.142;11.618;2022-09-09T10:31:27;27.60;46.10
2749;DHT22;1382;52.142;11.618;2022-09-09T10:34:04;27.70;46.00
2749;DHT22;1382;52.142;11.618;2022-09-09T10:36:42;27.60;46.40
2749;DHT22;1382;52.142;11.618;2022-09-09T10:39:18;27.70;46.40
2749;DHT22;1382;52.142;11.618;2022-09-09T10:42:00;27.80;45.30
2749;DHT22;1382;52.142;11.618;2022-09-09T10:44:42;27.90;45.80
2749;DHT22;1382;52.142;11.618;2022-09-09T10:47:32;28.00;44.70
2749;DHT22;1382;52.142;11.618;2022-09-09T10:50:16;28.00;44.80
2749;DHT22;1382;52.142;11.618;2022-09-09T10:52:52;28.20;44.10
2749;DHT22;1382;52.142;11.618;2022-09-09T10:55:25;28.10;44.30
2749;DHT22;1382;52.142;11.618;2022-09-09T10:57:57;28.10;44.60
2749;DHT22;1382;52.142;11.618;2022-09-09T11:00:31;28.40;44.70
2749;DHT22;1382;52.142;11.618;2022-09-09T11:03:04;28.40;44.80
2749;DHT22;1382;52.142;11.618;2022-09-09T11:05:35;28.40;44.10
2749;DHT22;1382;52.142;11.618;2022-09-09T11:08:06;28.40;44.10
2749;DHT22;1382;52.142;11.618;2022-09-09T11:10:39;28.50;44.60
2749;DHT22;1382;52.142;11.618;2022-09-09T11:13:13;28.50;44.20
2749;DHT22;1382;52.142;11.618;2022-09-09T11:15:45;28.60;44.10
2749;DHT22;1382;52.142;11.618;2022-09-09T11:18:19;28.60;44.40
2749;DHT22;1382;52.142;11.618;2022-09-09T11:20:48;28.80;44.20
2749;DHT22;1382;52.142;11.618;2022-09-09T11:23:17;28.60;44.00
2749;DHT22;1382;52.142;11.618;2022-09-09T11:25:50;28.70;44.00
2749;DHT22;1382;52.142;11.618;2022-09-09T11:28:35;28.70;43.70
2749;DHT22;1382;52.142;11.618;2022-09-09T11:31:21;28.70;43.30
2749;DHT22;1382;52.142;11.618;2022-09-09T11:34:02;28.70;43.20
2749;DHT22;1382;52.142;11.618;2022-09-09T11:36:58;28.60;42.80
2749;DHT22;1382;52.142;11.618;2022-09-09T11:39:43;28.70;42.80
2749;DHT22;1382;52.142;11.618;2022-09-09T11:42:23;28.80;42.70
2749;DHT22;1382;52.142;11.618;2022-09-09T11:44:50;28.70;42.70
2749;DHT22;1382;52.142;11.618;2022-09-09T11:47:23;28.80;42.30
2749;DHT22;1382;52.142;11.618;2022-09-09T11:49:50;28.80;42.60
2749;DHT22;1382;52.142;11.618;2022-09-09T11:52:22;28.90;42.20
2749;DHT22;1382;52.142;11.618;2022-09-09T11:54:49;29.10;42.20
2749;DHT22;1382;52.142;11.618;2022-09-09T11:57:25;29.10;42.80
2749;DHT22;1382;52.142;11.618;2022-09-09T11:59:53;29.30;42.60
2749;DHT22;1382;52.142;11.618;2022-09-09T12:02:23;29.40;41.60
2749;DHT22;1382;52.142;11.618;2022-09-09T12:04:57;29.50;43.30
2749;DHT22;1382;52.142;11.618;2022-09-09T12:07:33;29.50;42.70
2749;DHT22;1382;52.142;11.618;2022-09-09T12:10:04;29.70;42.70
2749;DHT22;1382;52.142;11.618;2022-09-09T12:12:33;29.70;42.40
2749;DHT22;1382;52.142;11.618;2022-09-09T12:15:18;29.80;43.20
2749;DHT22;1382;52.142;11.618;2022-09-09T12:17:49;30.00;42.00
2749;DHT22;1382;52.142;11.618;2022-09-09T12:20:18;30.10;42.70
2749;DHT22;1382;52.142;11.618;2022-09-09T12:22:55;30.10;42.40
2749;DHT22;1382;52.142;11.618;2022-09-09T12:25:32;30.30;41.00
2749;DHT22;1382;52.142;11.618;2022-09-09T12:28:05;30.40;40.90
2749;DHT22;1382;52.142;11.618;2022-09-09T12:30:37;30.50;42.00
2749;DHT22;1382;52.142;11.618;2022-09-09T12:33:11;30.60;41.70
2749;DHT22;1382;52.142;11.618;2022-09-09T12:35:39;30.70;40.80
2749;DHT22;1382;52.142;11.618;2022-09-09T12:38:13;30.80;41.90
2749;DHT22;1382;52.142;11.618;2022-09-09T12:40:40;30.90;39.90
2749;DHT22;1382;52.142;11.618;2022-09-09T12:43:17;31.00;41.50
2749;DHT22;1382;52.142;11.618;2022-09-09T12:45:44;31.10;40.10
2749;DHT22;1382;52.142;11.618;2022-09-09T12:48:12;31.10;40.70
2749;DHT22;1382;52.142;11.618;2022-09-09T12:50:45;31.30;41.10
2749;DHT22;1382;52.142;11.618;2022-09-09T12:53:24;31.20;40.10
2749;DHT22;1382;52.142;11.618;2022-09-09T12:55:55;31.30;41.00
2749;DHT22;1382;52.142;11.618;2022-09-09T12:58:23;31.40;40.10
2749;DHT22;1382;52.142;11.618;2022-09-09T13:00:51;31.40;37.90
2749;DHT22;1382;52.142;11.618;2022-09-09T13:03:21;31.50;39.60
2749;DHT22;1382;52.142;11.618;2022-09-09T13:05:48;31.50;39.10
2749;DHT22;1382;52.142;11.618;2022-09-09T13:08:17;31.50;39.90
2749;DHT22;1382;52.142;11.618;2022-09-09T13:10:47;31.70;40.20
2749;DHT22;1382;52.142;11.618;2022-09-09T13:13:22;31.70;39.20
2749;DHT22;1382;52.142;11.618;2022-09-09T13:15:51;31.80;38.20
2749;DHT22;1382;52.142;11.618;2022-09-09T13:18:22;31.80;39.30
2749;DHT22;1382;52.142;11.618;2022-09-09T13:20:51;32.00;41.40
2749;DHT22;1382;52.142;11.618;2022-09-09T13:23:20;31.90;39.40
2749;DHT22;1382;52.142;11.618;2022-09-09T13:25:54;31.90;40.30
2749;DHT22;1382;52.142;11.618;2022-09-09T13:28:23;32.00;38.00
2749;DHT22;1382;52.142;11.618;2022-09-09T13:30:57;32.10;38.30
2749;DHT22;1382;52.142;11.618;2022-09-09T13:33:32;32.00;39.40
2749;DHT22;1382;52.142;11.618;2022-09-09T13:36:02;32.10;39.30
2749;DHT22;1382;52.142;11.618;2022-09-09T13:38:32;31.90;38.80
2749;DHT22;1382;52.142;11.618;2022-09-09T13:41:00;31.90;37.40
2749;DHT22;1382;52.142;11.618;2022-09-09T13:43:28;31.90;34.20
2749;DHT22;1382;52.142;11.618;2022-09-09T13:45:57;31.80;32.80
2749;DHT22;1382;52.142;11.618;2022-09-09T13:48:25;31.60;33.50
2749;DHT22;1382;52.142;11.618;2022-09-09T13:51:01;31.40;33.50
2749;DHT22;1382;52.142;11.618;2022-09-09T13:53:28;31.30;35.70
2749;DHT22;1382;52.142;11.618;2022-09-09T13:55:55;31.10;36.40
2749;DHT22;1382;52.142;11.618;2022-09-09T13:58:22;31.30;37.00
2749;DHT22;1382;52.142;11.618;2022-09-09T14:00:49;31.10;36.40
2749;DHT22;1382;52.142;11.618;2022-09-09T14:03:16;31.10;35.60
2749;DHT22;1382;52.142;11.618;2022-09-09T14:05:44;31.10;37.10
2749;DHT22;1382;52.142;11.618;2022-09-09T14:08:17;31.00;36.40
2749;DHT22;1382;52.142;11.618;2022-09-09T14:10:46;31.10;36.70
2749;DHT22;1382;52.142;11.618;2022-09-09T14:13:13;30.90;36.50
2749;DHT22;1382;52.142;11.618;2022-09-09T14:15:40;30.80;36.30
2749;DHT22;1382;52.142;11.618;2022-09-09T14:18:11;30.80;36.30
2749;DHT22;1382;52.142;11.618;2022-09-09T14:20:38;30.80;37.00
2749;DHT22;1382;52.142;11.618;2022-09-09T14:23:04;30.70;38.50
2749;DHT22;1382;52.142;11.618;2022-09-09T14:25:32;30.60;39.00
2749;DHT22;1382;52.142;11.618;2022-09-09T14:27:59;30.70;39.50
2749;DHT22;1382;52.142;11.618;2022-09-09T14:30:26;30.50;39.60
2749;DHT22;1382;52.142;11.618;2022-09-09T14:32:53;30.50;39.80
2749;DHT22;1382;52.142;11.618;2022-09-09T14:35:20;30.50;39.70
2749;DHT22;1382;52.142;11.618;2022-09-09T14:37:47;30.60;39.00
2749;DHT22;1382;52.142;11.618;2022-09-09T14:40:13;30.50;40.20
2749;DHT22;1382;52.142;11.618;2022-09-09T14:42:42;30.60;40.10
2749;DHT22;1382;52.142;11.618;2022-09-09T14:45:10;30.60;39.10
2749;DHT22;1382;52.142;11.618;2022-09-09T14:47:36;30.70;39.90
2749;DHT22;1382;52.142;11.618;2022-09-09T14:50:04;30.60;39.80
2749;DHT22;1382;52.142;11.618;2022-09-09T14:52:31;30.70;38.30
2749;DHT22;1382;52.142;11.618;2022-09-09T14:54:59;30.80;38.70
2749;DHT22;1382;52.142;11.618;2022-09-09T14:57:25;30.80;38.10
2749;DHT22;1382;52.142;11.618;2022-09-09T14:59:53;30.80;38.80
2749;DHT22;1382;52.142;11.618;2022-09-09T15:02:20;30.70;37.30
2749;DHT22;1382;52.142;11.618;2022-09-09T15:04:47;30.70;38.30
2749;DHT22;1382;52.142;11.618;2022-09-09T15:07:14;30.70;37.80
2749;DHT22;1382;52.142;11.618;2022-09-09T15:09:41;30.70;37.50
2749;DHT22;1382;52.142;11.618;2022-09-09T15:12:08;30.60;38.10
2749;DHT22;1382;52.142;11.618;2022-09-09T15:14:35;30.50;37.50
2749;DHT22;1382;52.142;11.618;2022-09-09T15:17:03;30.50;37.30
2749;DHT22;1382;52.142;11.618;2022-09-09T15:19:30;30.60;38.20
2749;DHT22;1382;52.142;11.618;2022-09-09T15:21:57;30.40;37.00
2749;DHT22;1382;52.142;11.618;2022-09-09T15:24:24;30.50;36.90
2749;DHT22;1382;52.142;11.618;2022-09-09T15:26:51;30.40;37.30
2749;DHT22;1382;52.142;11.618;2022-09-09T15:29:17;30.20;37.80
2749;DHT22;1382;52.142;11.618;2022-09-09T15:31:44;30.20;37.40
2749;DHT22;1382;52.142;11.618;2022-09-09T15:34:12;30.10;38.10
2749;DHT22;1382;52.142;11.618;2022-09-09T15:36:41;30.10;37.40
2749;DHT22;1382;52.142;11.618;2022-09-09T15:39:10;30.20;36.80
2749;DHT22;1382;52.142;11.618;2022-09-09T15:41:37;30.20;37.30
2749;DHT22;1382;52.142;11.618;2022-09-09T15:44:04;30.30;37.90
2749;DHT22;1382;52.142;11.618;2022-09-09T15:46:32;30.20;36.60
2749;DHT22;1382;52.142;11.618;2022-09-09T15:49:05;30.20;37.00
2749;DHT22;1382;52.142;11.618;2022-09-09T15:51:33;30.30;37.70
2749;DHT22;1382;52.142;11.618;2022-09-09T15:54:10;30.30;39.30
2749;DHT22;1382;52.142;11.618;2022-09-09T15:56:37;30.50;38.60
2749;DHT22;1382;52.142;11.618;2022-09-09T15:59:04;30.40;37.80
2749;DHT22;1382;52.142;11.618;2022-09-09T16:01:32;30.60;39.00
2749;DHT22;1382;52.142;11.618;2022-09-09T16:03:59;30.50;38.10
2749;DHT22;1382;52.142;11.618;2022-09-09T16:06:27;30.60;38.80